Hlavní strana
METAR-TAF:

METAR-TAF

Letiště :

Curaçao, Nizozemské Antily

zeměpisná šířka: 12-12N, zeměpisná délka: 068-58W, výška: 9 m

Aktuální stav počasí

Zpráva byla vytvořena před 58 minutami, v 19:00 UTC
Východní vítr 13 kt
Teplota 31°C
Vlhkost vzduchu 66%
Tlak 1013 hPa
Viditelnost 10 km a více

METAR: TNCC 181900Z AUTO 08013KT 9999 NCD 31/24 Q1013

Čas: 15:58 (19:58 UTC)

Předpověď počasí

Zpráva byla vytvořena před 9 hodinami a 58 minutami, v 10:00 UTC
Předpověď platná od 18 v 12 UTC do 19 v 12 UTC
Východní vítr 15 kt s nárazy do 26 kt
Viditelnost 10 km a více
Polojasno ve výšce 2000 ft

TAF: TNCC 181000Z 1812/1912 10015G26KT 9999 SCT020

Stav a předpovědi počasí z více než 4 000 letišť (zprávy METAR a TAF).

Červené a žluté tečky na mapě představují dostupné meteorologické stanice.

Když kurzor umístíte na tečku, zobrazí se název stanice.

Pak kliknutím zobrazíte stav a předpověď počasí.

Chcete-li změnit mapu, kliknutím na zelené tlačítko se znaménkem +mapu přiblížíte, kliknutím na zelené tlačítko se znaménkem – mapu oddálíte a kliknutím na zelené šipky přejdete na sousední mapy.


METAR-TAF: